Time;durP1;ratioP1;P1;durP2;ratioP2;P2;SDS_P1;SDS_P2;PMS_P1;PMS_P2;Temp;Humidity;BMP_temperature;BMP_pressure;BME280_temperature;BME280_humidity;BME280_pressure;Samples;Min_cycle;Max_cycle;Signal;HPM_P1;HPM_P2
2023/12/04 00:01:46;;;;;;;65.50;19.30;;;-1.10;99.90;;;-2.84;100.00;101685.16;4967431;28;20037;-82
2023/12/04 00:04:19;;;;;;;59.35;19.40;;;-1.10;99.90;;;-2.86;100.00;101673.94;4917820;28;20028;-81
2023/12/04 00:06:47;;;;;;;65.60;18.77;;;-1.10;99.90;;;-2.85;100.00;101677.38;4956959;28;20564;-82
2023/12/04 00:09:13;;;;;;;64.88;19.73;;;-1.10;99.90;;;-2.86;100.00;101668.78;4976972;28;20104;-83
2023/12/04 00:11:44;;;;;;;54.28;19.33;;;-1.10;99.90;;;-2.84;100.00;101669.69;4957392;28;20044;-83
2023/12/04 00:14:10;;;;;;;50.03;18.20;;;-1.00;99.90;;;-2.83;100.00;101676.59;4977062;28;20119;-82
2023/12/04 00:16:39;;;;;;;59.08;19.95;;;-1.00;99.90;;;-2.80;100.00;101679.25;4922798;28;20572;-82
2023/12/04 00:19:05;;;;;;;57.45;19.20;;;-1.00;99.90;;;-2.81;100.00;101672.31;5009729;28;20048;-84
2023/12/04 00:21:38;;;;;;;59.78;19.23;;;-1.00;99.90;;;-2.81;100.00;101682.63;4950213;28;20504;-81
2023/12/04 00:24:05;;;;;;;52.70;19.27;;;-1.00;99.90;;;-2.79;100.00;101675.81;4975922;28;20033;-82
2023/12/04 00:26:31;;;;;;;50.97;18.75;;;-1.00;99.90;;;-2.79;100.00;101677.53;4948849;28;20053;-82
2023/12/04 00:29:07;;;;;;;58.25;19.30;;;-1.00;99.90;;;-2.79;100.00;101680.97;4953345;28;20053;-84
2023/12/04 00:31:32;;;;;;;52.53;18.65;;;-1.00;99.90;;;-2.80;100.00;101670.66;4955110;28;20438;-82
2023/12/04 00:33:58;;;;;;;59.83;19.77;;;-1.00;99.90;;;-2.82;100.00;101670.59;4989116;28;20038;-81
2023/12/04 00:36:24;;;;;;;52.95;19.58;;;-1.00;99.90;;;-2.84;100.00;101669.69;4946984;28;20047;-82
2023/12/04 00:38:50;;;;;;;59.80;20.63;;;-1.00;99.90;;;-2.84;99.93;101673.97;4950259;28;20047;-82
2023/12/04 00:41:27;;;;;;;62.35;19.20;;;-1.10;99.90;;;-2.85;100.00;101680.84;4944991;28;20087;-84
2023/12/04 00:43:53;;;;;;;53.90;18.35;;;-1.10;99.90;;;-2.94;99.84;101680.59;4946430;28;20508;-82
2023/12/04 00:46:21;;;;;;;63.47;21.33;;;-1.10;99.90;;;-2.94;100.00;101678.03;4966107;28;20059;-83
2023/12/04 00:48:49;;;;;;;55.42;20.38;;;-1.20;99.90;;;-2.95;100.00;101684.03;4965025;28;20105;-84
2023/12/04 00:51:15;;;;;;;54.80;21.83;;;-1.20;99.90;;;-2.95;100.00;101676.31;4943928;28;20037;-84
2023/12/04 00:53:41;;;;;;;55.92;21.02;;;;;;;-2.94;100.00;101685.75;4915081;28;20040;-82
2023/12/04 00:56:10;;;;;;;56.47;19.85;;;-1.20;99.90;;;-3.00;100.00;101683.94;4954976;28;20033;-84
2023/12/04 00:58:45;;;;;;;54.88;19.48;;;-1.20;99.90;;;-2.97;100.00;101683.13;4945203;28;20032;-84
2023/12/04 01:01:11;;;;;;;62.50;21.20;;;;;;;-2.98;100.00;101678.78;4962536;28;20488;-82
2023/12/04 01:03:45;;;;;;;49.15;18.92;;;-1.20;99.90;;;-3.02;100.00;101683.03;4950937;28;20046;-84
2023/12/04 01:06:23;;;;;;;50.92;18.73;;;-1.20;99.90;;;-3.02;100.00;101679.53;4945611;28;20131;-81
2023/12/04 01:08:50;;;;;;;51.00;17.95;;;-1.20;99.90;;;-3.02;100.00;101682.13;4950166;28;20037;-82
2023/12/04 01:11:20;;;;;;;47.47;18.45;;;;;;;-3.07;100.00;101676.00;4968373;28;20044;-82
2023/12/04 01:13:46;;;;;;;44.33;17.38;;;-1.30;99.90;;;-3.16;100.00;101674.06;5023019;28;20536;-84
2023/12/04 01:16:20;;;;;;;46.35;18.35;;;-1.30;99.90;;;-3.13;100.00;101669.00;4940852;28;20413;-81
2023/12/04 01:18:46;;;;;;;48.58;18.13;;;-1.30;99.90;;;-3.13;100.00;101663.84;4961101;28;20041;-83
2023/12/04 01:21:12;;;;;;;48.25;17.95;;;;;;;-3.17;100.00;101672.34;4964811;28;20104;-82
2023/12/04 01:23:38;;;;;;;46.63;18.50;;;-1.30;99.90;;;-3.15;100.00;101680.97;4972808;28;20042;-84
2023/12/04 01:26:12;;;;;;;48.63;19.45;;;-1.30;99.90;;;-3.14;100.00;101672.41;4966916;28;20118;-82
2023/12/04 01:28:38;;;;;;;44.90;18.48;;;-1.30;99.90;;;-3.17;100.00;101662.91;4945801;28;20050;-84
2023/12/04 01:31:04;;;;;;;51.13;18.58;;;;;;;-3.14;100.00;101668.13;4907425;28;20073;-82
2023/12/04 01:33:30;;;;;;;54.38;20.15;;;-1.30;99.90;;;-3.13;100.00;101664.72;4951082;28;20044;-83
2023/12/04 01:36:07;;;;;;;50.38;18.98;;;-1.30;99.90;;;-3.12;100.00;101663.00;4919477;28;20041;-84
2023/12/04 01:38:33;;;;;;;48.75;18.52;;;-1.30;99.90;;;-3.13;100.00;101669.00;4961442;28;20501;-82
2023/12/04 01:40:59;;;;;;;54.17;19.92;;;-1.30;99.90;;;-3.12;100.00;101665.59;4947628;28;20047;-82
2023/12/04 01:43:36;;;;;;;48.97;19.77;;;-1.30;99.90;;;-3.12;100.00;101663.88;4961282;28;20055;-83
2023/12/04 01:46:08;;;;;;;47.95;17.42;;;-1.30;99.90;;;-3.11;100.00;101663.06;4974131;28;20038;-82
2023/12/04 01:48:40;;;;;;;44.72;17.83;;;-1.40;99.90;;;-3.18;100.00;101666.28;5004070;28;20049;-84
2023/12/04 01:51:19;;;;;;;48.53;19.30;;;-1.30;99.90;;;-3.15;100.00;101660.38;4983394;28;20033;-83
2023/12/04 01:53:48;;;;;;;52.72;20.10;;;-1.30;99.90;;;-3.17;100.00;101657.75;4980263;28;20108;-83
2023/12/04 01:56:20;;;;;;;48.17;19.58;;;-1.30;99.90;;;-3.13;100.00;101653.56;4957384;28;20045;-81
2023/12/04 01:58:46;;;;;;;46.63;17.85;;;-1.30;99.90;;;-3.16;100.00;101662.06;4953474;28;20170;-83
2023/12/04 02:01:12;;;;;;;52.95;20.00;;;-1.40;99.90;;;-3.21;100.00;101660.22;4974986;28;20063;-81
2023/12/04 02:03:38;;;;;;;53.38;19.58;;;-1.40;99.90;;;-3.23;100.00;101656.72;4968805;28;20061;-83
2023/12/04 02:06:12;;;;;;;50.55;19.20;;;-1.40;99.90;;;-3.26;100.00;101657.53;4968332;28;20077;-82
2023/12/04 02:08:40;;;;;;;38.88;14.98;;;-1.40;99.90;;;-3.28;100.00;101659.19;5005859;28;20049;-83
2023/12/04 02:11:06;;;;;;;56.53;19.67;;;-1.40;99.90;;;-3.25;100.00;101654.09;4981686;28;20101;-84
2023/12/04 02:13:33;;;;;;;58.92;21.35;;;-1.40;99.90;;;-3.22;100.00;101653.31;4988678;28;20116;-83
2023/12/04 02:16:10;;;;;;;52.65;20.63;;;-1.40;99.90;;;-3.20;100.00;101646.50;4983918;28;20524;-84
2023/12/04 02:18:41;;;;;;;52.00;20.77;;;-1.40;99.90;;;-3.15;100.00;101650.94;4974493;28;20099;-84
2023/12/04 02:21:07;;;;;;;56.25;20.50;;;-1.40;99.90;;;-3.12;100.00;101651.00;4972703;28;20037;-83
2023/12/04 02:23:33;;;;;;;62.55;22.70;;;-1.40;99.90;;;-3.12;100.00;101643.25;4957262;28;20050;-81
2023/12/04 02:26:08;;;;;;;61.78;23.40;;;-1.30;99.90;;;-3.08;100.00;101651.09;4964372;28;20100;-82
2023/12/04 02:28:39;;;;;;;57.55;20.70;;;-1.30;99.90;;;-3.08;100.00;101643.34;5012489;28;20030;-82
2023/12/04 02:31:07;;;;;;;56.78;22.02;;;-1.50;99.90;;;-3.10;100.00;101646.75;4990441;28;20037;-81
2023/12/04 02:33:37;;;;;;;64.03;24.70;;;-1.30;99.90;;;-3.07;100.00;101637.34;5006250;28;20135;-82
2023/12/04 02:36:05;;;;;;;60.67;23.77;;;-1.30;99.90;;;-3.04;100.00;101637.44;4993005;28;20403;-82
2023/12/04 02:38:32;;;;;;;48.30;18.98;;;-1.30;99.90;;;-3.08;100.00;101630.47;4983251;28;20378;-82
2023/12/04 02:40:58;;;;;;;53.63;20.15;;;-1.30;99.90;;;-3.11;100.00;101628.66;4961402;28;20043;-83
2023/12/04 02:43:28;;;;;;;45.60;18.83;;;-1.40;99.90;;;-3.17;100.00;101637.13;4996259;28;20104;-82
2023/12/04 02:45:54;;;;;;;48.88;19.95;;;-1.30;99.90;;;-3.18;100.00;101629.38;4974080;28;20516;-82
2023/12/04 02:48:20;;;;;;;49.15;20.60;;;-1.40;99.90;;;-3.20;100.00;101637.03;4970600;28;20029;-82
2023/12/04 02:50:48;;;;;;;55.55;21.17;;;-1.40;99.90;;;-3.19;100.00;101615.63;4990713;28;20457;-84
2023/12/04 02:53:24;;;;;;;54.88;20.70;;;-1.30;99.90;;;-3.16;100.00;101620.84;4985495;28;20043;-83
2023/12/04 02:55:50;;;;;;;54.70;21.08;;;-1.30;99.90;;;-3.14;100.00;101626.03;4969599;28;20029;-82
2023/12/04 02:58:23;;;;;;;57.13;21.17;;;-1.40;99.90;;;-3.13;100.00;101620.91;4943663;28;20477;-83
2023/12/04 03:00:49;;;;;;;62.05;22.05;;;-1.30;99.90;;;-3.10;100.00;101623.56;4949816;28;20041;-83
2023/12/04 03:03:15;;;;;;;55.63;20.58;;;-1.30;99.90;;;-3.14;100.00;101615.72;5015115;28;20622;-83
2023/12/04 03:05:41;;;;;;;61.03;22.00;;;-1.30;99.90;;;-3.11;100.00;101611.53;5000550;28;20036;-81
2023/12/04 03:08:07;;;;;;;60.28;23.10;;;-1.30;99.90;;;-3.11;100.00;101608.94;5016711;28;20028;-83
2023/12/04 03:10:33;;;;;;;58.00;22.02;;;-1.30;99.90;;;-3.07;100.00;101604.72;5001063;28;20040;-81
2023/12/04 03:12:58;;;;;;;64.20;23.90;;;-1.30;99.90;;;-3.02;100.00;101612.56;4984981;28;20101;-84
2023/12/04 03:15:30;;;;;;;65.78;23.10;;;-1.20;99.90;;;-2.96;100.00;101598.13;4986062;28;20560;-81
2023/12/04 03:17:59;;;;;;;60.97;23.42;;;-1.20;99.90;;;-2.94;100.00;101605.88;4992421;28;20036;-83
2023/12/04 03:20:32;;;;;;;63.53;23.40;;;-1.20;99.90;;;-2.92;100.00;101597.34;4969110;28;20038;-83
2023/12/04 03:23:00;;;;;;;71.30;23.80;;;-1.10;99.90;;;-2.91;100.00;101590.50;4991163;28;20048;-83
2023/12/04 03:25:26;;;;;;;58.50;22.70;;;-1.10;99.90;;;-2.91;100.00;101590.50;4990995;28;20052;-82
2023/12/04 03:27:52;;;;;;;61.65;22.77;;;-1.10;99.90;;;-2.86;100.00;101594.03;4975784;28;20036;-82
2023/12/04 03:30:20;;;;;;;64.38;23.50;;;-1.10;99.90;;;-2.84;100.00;101607.84;4965369;28;20037;-83
2023/12/04 03:32:57;;;;;;;59.33;21.77;;;-1.10;99.90;;;-2.80;100.00;101606.19;4994512;28;20044;-84
2023/12/04 03:35:32;;;;;;;59.97;22.73;;;-1.00;99.90;;;-2.79;99.71;101601.06;4987967;28;20033;-81
2023/12/04 03:38:00;;;;;;;66.03;23.80;;;-1.00;99.90;;;-2.77;99.69;101601.09;5002400;28;20041;-83
2023/12/04 03:40:34;;;;;;;69.45;23.88;;;;;;;-2.77;99.11;101596.81;4984808;28;20032;-83
2023/12/04 03:43:00;;;;;;;62.70;23.20;;;-1.00;99.90;;;-2.79;99.56;101590.75;4986723;28;20091;-83
2023/12/04 03:45:26;;;;;;;63.15;23.45;;;-1.00;99.90;;;-2.79;99.11;101582.16;4982130;28;20483;-83
2023/12/04 03:47:51;;;;;;;63.10;21.42;;;-1.00;99.90;;;-2.79;99.11;101593.31;4960079;28;20046;-82
2023/12/04 03:50:28;;;;;;;65.18;23.98;;;-0.70;99.90;;;-2.79;99.50;101593.31;4971929;28;20034;-83
2023/12/04 03:52:54;;;;;;;57.08;21.38;;;-1.00;99.90;;;-2.78;99.39;101584.78;4972584;28;20049;-81
2023/12/04 03:55:20;;;;;;;66.82;23.90;;;-1.00;99.90;;;-2.78;98.75;101573.59;4959451;28;20041;-83
2023/12/04 03:57:46;;;;;;;53.60;21.02;;;-1.00;99.90;;;-2.77;99.01;101575.31;5005838;28;20033;-81
2023/12/04 04:00:13;;;;;;;55.53;22.48;;;;;;;-2.78;98.89;101577.03;4976890;28;20476;-81
2023/12/04 04:02:43;;;;;;;61.97;22.58;;;-1.00;99.90;;;-2.83;99.34;101565.78;5011701;28;20630;-84
2023/12/04 04:05:09;;;;;;;56.42;22.38;;;-1.10;99.90;;;-2.87;98.92;101569.13;5012248;28;20036;-81
2023/12/04 04:07:39;;;;;;;56.92;22.92;;;-1.10;99.90;;;-2.91;99.04;101562.16;4965691;28;20037;-81
2023/12/04 04:10:14;;;;;;;54.63;20.60;;;-1.10;99.90;;;-2.94;99.29;101556.91;5005776;28;20520;-82
2023/12/04 04:12:40;;;;;;;59.92;23.25;;;-1.10;99.90;;;-2.94;99.23;101570.69;5006076;28;20079;-82
2023/12/04 04:15:06;;;;;;;69.00;24.63;;;-1.10;99.90;;;-2.91;99.17;101567.31;5007592;28;20037;-83
2023/12/04 04:17:43;;;;;;;64.38;24.02;;;-1.10;99.90;;;-2.90;99.73;101563.88;4955556;28;21945;-82
2023/12/04 04:20:11;;;;;;;66.15;23.00;;;-1.10;99.90;;;-2.91;99.06;101559.56;4978624;28;20095;-84
2023/12/04 04:22:40;;;;;;;64.30;24.52;;;;;;;-2.91;99.31;101550.13;5018983;28;20487;-82
2023/12/04 04:25:10;;;;;;;57.35;21.15;;;-1.10;99.90;;;-2.91;99.69;101562.16;4919928;28;20131;-83
2023/12/04 04:27:36;;;;;;;64.70;24.25;;;-1.10;99.90;;;-2.92;99.75;101568.13;4892624;28;20049;-82
2023/12/04 04:30:03;;;;;;;69.22;23.90;;;-1.20;99.90;;;-2.92;99.84;101574.13;4903907;28;20043;-81
2023/12/04 04:32:33;;;;;;;68.40;24.33;;;-1.20;99.90;;;-2.93;99.28;101569.84;4890681;28;20043;-83
2023/12/04 04:35:00;;;;;;;75.10;25.85;;;;;;;-2.95;99.94;101570.66;4918320;28;20512;-80
2023/12/04 04:37:25;;;;;;;74.55;24.20;;;-1.20;99.90;;;-2.96;99.89;101566.31;4948323;28;20051;-82
2023/12/04 04:39:51;;;;;;;67.97;24.88;;;-1.20;99.90;;;-2.97;99.78;101568.03;4997827;28;20120;-80
2023/12/04 04:42:17;;;;;;;79.47;27.27;;;-1.20;99.90;;;-2.95;99.62;101565.50;5015185;28;20048;-82
2023/12/04 04:44:43;;;;;;;74.55;26.10;;;-1.20;99.90;;;-2.96;99.86;101577.50;4955700;28;20033;-82
2023/12/04 04:47:19;;;;;;;;;;;;;;;;;;;;;
2023/12/04 04:49:45;;;;;;;71.28;24.80;;;-1.20;99.90;;;-3.02;99.92;101563.59;5001404;28;20582;-83
2023/12/04 04:52:11;;;;;;;66.45;23.75;;;-1.20;99.90;;;-3.04;99.85;101579.03;4974192;28;20392;-81
2023/12/04 04:54:44;;;;;;;67.65;23.30;;;-1.30;99.90;;;-3.11;100.00;101565.16;4970247;28;20041;-83
2023/12/04 04:57:10;;;;;;;61.28;21.95;;;-1.30;99.90;;;-3.14;100.00;101572.78;4979724;28;20032;-82
2023/12/04 04:59:38;;;;;;;68.88;23.08;;;-1.30;99.90;;;-3.14;100.00;101559.03;4975720;28;20038;-84
2023/12/04 05:02:12;;;;;;;60.33;21.10;;;-1.30;99.90;;;-3.13;100.00;101551.38;4989337;28;20040;-82
2023/12/04 05:04:41;;;;;;;69.70;23.27;;;-1.30;99.90;;;-3.16;100.00;101559.00;4987864;28;20049;-83
2023/12/04 05:07:12;;;;;;;68.20;23.27;;;-1.40;99.90;;;-3.16;100.00;101563.28;4997633;28;25460;-83
2023/12/04 05:09:38;;;;;;;60.63;21.05;;;-1.40;99.90;;;-3.16;100.00;101565.88;4961709;28;20037;-83
2023/12/04 05:12:04;;;;;;;67.72;24.15;;;-1.40;99.90;;;-3.17;100.00;101559.84;4973612;28;20047;-82
2023/12/04 05:14:30;;;;;;;68.07;23.88;;;-1.30;99.90;;;-3.14;100.00;101572.78;4985662;28;20049;-82
2023/12/04 05:16:56;;;;;;;76.53;25.17;;;-1.40;99.90;;;-3.13;100.00;101559.09;4981196;28;20040;-83
2023/12/04 05:19:22;;;;;;;74.07;25.55;;;-1.30;99.90;;;-3.12;100.00;101553.09;4991084;28;20041;-82
2023/12/04 05:21:53;;;;;;;86.28;30.00;;;-1.30;99.90;;;-3.11;100.00;101560.00;4939554;28;20037;-83
2023/12/04 05:24:19;;;;;;;75.40;24.55;;;-1.40;99.90;;;-3.18;100.00;101552.09;4970402;28;20038;-83
2023/12/04 05:26:47;;;;;;;80.18;25.98;;;-1.30;99.90;;;-3.12;100.00;101547.94;5001384;28;20054;-82
2023/12/04 05:29:13;;;;;;;82.85;27.23;;;-1.30;99.90;;;-3.08;100.00;101542.88;4957131;28;20045;-82
2023/12/04 05:31:39;;;;;;;75.38;25.58;;;-1.30;99.90;;;-3.06;100.00;101544.63;4949198;28;20498;-82
2023/12/04 05:34:10;;;;;;;83.70;26.17;;;;;;;-3.01;100.00;101547.31;4970798;28;20056;-83
2023/12/04 05:36:36;;;;;;;70.55;23.92;;;;;;;-3.02;100.00;101546.44;5008859;28;20045;-83
2023/12/04 05:39:04;;;;;;;59.00;19.02;;;-1.30;99.90;;;-3.10;100.00;101545.41;4990223;28;20140;-83
2023/12/04 05:41:30;;;;;;;68.30;23.48;;;-1.30;99.90;;;-3.10;100.00;101546.25;4975463;28;20040;-83
2023/12/04 05:44:01;;;;;;;34.75;12.05;;;-1.40;99.90;;;-3.27;100.00;101526.97;4967657;28;20115;-82
2023/12/04 05:46:27;;;;;;;64.38;22.35;;;-1.40;99.90;;;-3.25;100.00;101538.19;4983116;28;20037;-83
2023/12/04 05:48:53;;;;;;;76.88;24.38;;;-1.40;99.90;;;-3.25;100.00;101533.03;4956741;28;20045;-82
2023/12/04 05:51:19;;;;;;;72.28;24.90;;;-1.40;99.90;;;-3.20;100.00;101534.00;4958634;28;20090;-84
2023/12/04 05:53:45;;;;;;;66.82;23.50;;;-1.40;99.90;;;-3.21;100.00;101527.13;4992890;28;20376;-83
2023/12/04 05:56:18;;;;;;;58.20;21.35;;;-1.40;99.90;;;-3.29;100.00;101518.34;4959861;28;20035;-82
2023/12/04 05:58:44;;;;;;;74.78;23.90;;;-1.50;99.90;;;-3.29;100.00;101515.78;4976937;28;20028;-82
2023/12/04 06:01:10;;;;;;;62.33;21.52;;;-1.50;99.90;;;-3.30;100.00;101517.50;4968607;28;20041;-82
2023/12/04 06:03:38;;;;;;;69.63;23.70;;;-1.50;99.90;;;-3.30;100.00;101514.91;4993838;28;20037;-83
2023/12/04 06:06:13;;;;;;;71.60;22.33;;;-1.40;99.90;;;-3.27;100.00;101511.53;5005346;28;20573;-82
2023/12/04 06:08:39;;;;;;;76.82;25.83;;;-1.50;99.90;;;-3.29;100.00;101523.50;4968332;28;20049;-81
2023/12/04 06:11:05;;;;;;;76.50;23.58;;;-1.50;99.90;;;-3.35;100.00;101508.81;5000498;28;20033;-83
2023/12/04 06:13:34;;;;;;;74.68;23.98;;;-1.50;99.90;;;-3.31;100.00;101509.72;5012689;28;20067;-83
2023/12/04 06:16:02;;;;;;;81.57;24.90;;;-1.50;99.90;;;-3.36;100.00;101509.63;4982153;28;20034;-81
2023/12/04 06:18:30;;;;;;;56.75;19.75;;;-1.50;99.90;;;-3.36;100.00;101509.63;4970200;28;20087;-83
2023/12/04 06:20:56;;;;;;;77.53;26.08;;;-1.60;99.90;;;-3.42;100.00;101506.03;4973082;28;20416;-83
2023/12/04 06:23:22;;;;;;;67.00;20.20;;;-1.60;99.90;;;-3.51;100.00;101497.25;5020301;28;20028;-80
2023/12/04 06:25:52;;;;;;;92.55;33.33;;;;;;;-3.45;100.00;101496.53;4976551;28;20083;-86
2023/12/04 06:28:18;;;;;;;96.20;32.17;;;-1.60;99.90;;;-3.47;100.00;101490.47;5017136;28;20119;-81
2023/12/04 06:30:45;;;;;;;92.80;33.85;;;-1.60;99.90;;;-3.44;100.00;101497.41;4969410;28;20128;-81
2023/12/04 06:33:12;;;;;;;97.13;31.40;;;-2.10;99.90;;;-3.40;100.00;101494.94;4979995;28;20178;-83
2023/12/04 06:35:39;;;;;;;70.57;24.92;;;;;;;-3.44;100.00;101493.13;4955655;28;20045;-83
2023/12/04 06:38:18;;;;;;;58.13;22.10;;;-1.60;99.90;;;-3.47;100.00;101499.91;4987979;28;20132;-83
2023/12/04 06:40:52;;;;;;;65.95;23.27;;;-1.70;99.90;;;-3.56;100.00;101498.00;4955447;28;20175;-81
2023/12/04 06:43:18;;;;;;;71.15;25.42;;;-1.70;99.90;;;-3.52;100.00;101505.81;4971539;28;20154;-84
2023/12/04 06:45:45;;;;;;;81.82;26.73;;;-1.70;99.90;;;-3.53;100.00;101492.91;4988867;28;20175;-84
2023/12/04 06:48:17;;;;;;;74.03;26.10;;;;;;;-3.58;100.00;101497.94;4991305;28;20032;-81
2023/12/04 06:50:44;;;;;;;65.15;21.88;;;;;;;-3.59;100.00;101492.75;4975298;28;20085;-83
2023/12/04 06:53:12;;;;;;;78.53;26.08;;;-1.70;99.90;;;-3.53;100.00;101492.91;4986113;28;20118;-85
2023/12/04 06:55:38;;;;;;;71.45;24.23;;;-1.70;99.90;;;-3.57;100.00;101504.81;4992342;28;20071;-84
2023/12/04 06:58:10;;;;;;;80.30;25.27;;;-1.70;99.90;;;-3.55;100.00;101489.44;4989446;28;20049;-83
2023/12/04 07:00:36;;;;;;;78.20;23.08;;;-1.70;99.90;;;-3.55;100.00;101502.31;4993547;28;20033;-85
2023/12/04 07:03:03;;;;;;;55.78;17.52;;;-1.70;99.90;;;-3.62;100.00;101490.13;4994962;28;20512;-83
2023/12/04 07:05:37;;;;;;;76.07;24.13;;;-1.70;99.90;;;-3.57;100.00;101507.41;4987266;28;20075;-84
2023/12/04 07:08:03;;;;;;;85.38;27.38;;;-1.70;99.90;;;-3.57;100.00;101499.69;4985679;28;20033;-83
2023/12/04 07:10:29;;;;;;;104.88;27.90;;;-1.70;99.90;;;-3.54;100.00;101492.03;4979769;28;20049;-84
2023/12/04 07:12:55;;;;;;;96.63;27.20;;;-1.70;99.90;;;-3.49;100.00;101506.72;5009718;28;20056;-82
2023/12/04 07:15:20;;;;;;;63.22;19.58;;;-1.70;99.90;;;-3.56;100.00;101504.00;4934319;28;20524;-83
2023/12/04 07:17:46;;;;;;;61.88;19.73;;;-1.70;99.90;;;-3.57;100.00;101502.25;5021709;28;20053;-82
2023/12/04 07:20:12;;;;;;;90.25;27.30;;;-1.70;99.90;;;-3.59;100.00;101503.91;5005477;28;20032;-83
2023/12/04 07:22:41;;;;;;;79.63;23.50;;;-1.80;99.90;;;-3.63;100.00;101494.38;5011136;28;20044;-85
2023/12/04 07:25:08;;;;;;;78.85;25.08;;;-1.80;99.90;;;-3.61;100.00;101494.44;5001040;28;20028;-85
2023/12/04 07:27:34;;;;;;;94.78;26.83;;;-1.80;99.90;;;-3.61;100.00;101497.00;4949147;28;20034;-83
2023/12/04 07:30:00;;;;;;;80.78;22.17;;;-2.30;99.90;;;-3.68;100.00;101498.56;4995358;28;20497;-84
2023/12/04 07:32:36;;;;;;;104.57;28.92;;;-1.80;99.90;;;-3.66;100.00;101491.75;4971084;28;20044;-85
2023/12/04 07:35:02;;;;;;;;;;;-1.80;99.90;;;-3.68;100.00;101488.25;5004169;28;20052;-83
2023/12/04 07:37:31;;;;;;;48.63;16.42;;;;;;;-3.67;100.00;101495.16;4975672;28;19925;-85
2023/12/04 07:40:08;;;;;;;83.60;23.75;;;-1.80;99.90;;;-3.69;100.00;101494.25;4986403;28;20180;-86
2023/12/04 07:42:34;;;;;;;54.92;17.30;;;-1.80;99.90;;;-3.71;100.00;101495.94;4978916;28;20033;-84
2023/12/04 07:45:12;;;;;;;84.82;25.80;;;-1.80;99.90;;;-3.68;100.00;101492.56;4932794;28;20130;-85
2023/12/04 07:47:37;;;;;;;83.35;25.85;;;-1.80;99.90;;;-3.68;100.00;101497.69;4942128;28;20033;-85
2023/12/04 07:50:13;;;;;;;81.82;27.02;;;-1.80;99.90;;;-3.66;100.00;101501.19;4948128;28;20036;-83
2023/12/04 07:52:41;;;;;;;88.50;26.35;;;-1.80;99.90;;;-3.65;100.00;101503.81;4968096;28;20034;-85
2023/12/04 07:55:15;;;;;;;90.70;26.63;;;-1.80;99.90;;;-3.64;100.00;101500.38;4997154;28;20036;-85
2023/12/04 07:57:41;;;;;;;70.78;20.63;;;-1.90;99.90;;;-3.70;100.00;101500.22;4982336;28;20105;-84
2023/12/04 08:00:22;;;;;;;68.10;20.10;;;-1.90;99.90;;;-3.69;100.00;101499.41;4934712;28;20187;-82
2023/12/04 08:02:50;;;;;;;69.90;21.20;;;-1.90;99.90;;;-3.73;100.00;101492.44;5015154;28;20069;-85
2023/12/04 08:05:27;;;;;;;90.72;28.15;;;-1.80;99.90;;;-3.69;100.00;101486.53;4970668;28;20037;-84
2023/12/04 08:07:53;;;;;;;63.60;19.30;;;-1.80;99.90;;;-3.64;100.00;101487.50;4941185;28;20033;-83
2023/12/04 08:10:26;;;;;;;82.40;24.35;;;;;;;-3.60;100.00;101491.03;4953295;28;20406;-85
2023/12/04 08:12:52;;;;;;;75.43;23.38;;;-1.80;99.90;;;-3.64;100.00;101484.94;5007860;28;20084;-83
2023/12/04 08:15:18;;;;;;;87.18;28.38;;;-1.80;99.90;;;-3.58;100.00;101479.94;4949687;28;20053;-85
2023/12/04 08:17:44;;;;;;;97.45;29.63;;;-1.80;99.90;;;-3.56;100.00;101482.56;4985807;28;20040;-83
2023/12/04 08:20:17;;;;;;;94.85;29.08;;;-1.70;99.90;;;-3.55;100.00;101484.28;4964303;28;20034;-84
2023/12/04 08:22:45;;;;;;;96.53;29.15;;;-1.70;99.90;;;-3.49;100.00;101487.00;5020670;28;20063;-83
2023/12/04 08:25:11;;;;;;;60.67;19.35;;;-1.70;99.90;;;-3.54;100.00;101481.75;4984630;28;20067;-84
2023/12/04 08:27:38;;;;;;;104.10;28.65;;;-1.70;99.90;;;-3.56;100.00;101483.41;4988468;28;20037;-83
2023/12/04 08:30:09;;;;;;;76.57;24.58;;;-1.70;99.90;;;-3.58;100.00;101485.09;4992267;28;20520;-83
2023/12/04 08:32:35;;;;;;;66.38;22.08;;;;;;;-3.57;100.00;101485.94;4987338;28;20036;-84
2023/12/04 08:35:01;;;;;;;72.88;24.30;;;-1.70;99.90;;;-3.61;100.00;101471.25;4998363;28;20068;-83
2023/12/04 08:37:27;;;;;;;79.00;23.02;;;-1.70;99.90;;;-3.60;100.00;101476.44;4960773;28;20040;-84
2023/12/04 08:39:53;;;;;;;86.03;25.15;;;-1.70;99.90;;;-3.58;100.00;101473.91;4998213;28;20029;-84
2023/12/04 08:42:22;;;;;;;89.35;25.20;;;-1.70;99.90;;;-3.53;100.00;101480.91;4952102;28;20104;-85
2023/12/04 08:44:50;;;;;;;67.07;21.45;;;-1.70;99.90;;;-3.57;100.00;101476.50;4986076;28;20086;-85
2023/12/04 08:47:16;;;;;;;48.70;17.10;;;-1.80;99.90;;;-3.65;100.00;101470.34;4939720;28;20481;-84
2023/12/04 08:49:43;;;;;;;81.50;26.13;;;-1.80;99.90;;;-3.66;100.00;101481.44;4950066;28;20033;-84
2023/12/04 08:52:09;;;;;;;77.28;24.02;;;-1.80;99.90;;;-3.63;100.00;101480.66;4995553;28;20067;-85
2023/12/04 08:54:44;;;;;;;73.75;24.48;;;-1.70;99.90;;;-3.57;100.00;101470.50;4961957;28;20056;-83
2023/12/04 08:57:10;;;;;;;78.33;24.03;;;-1.80;99.90;;;-3.56;100.00;101473.13;4931736;28;20041;-85
2023/12/04 08:59:36;;;;;;;73.35;25.50;;;-1.70;99.90;;;-3.52;100.00;101469.78;4915660;28;20143;-85
2023/12/04 09:02:03;;;;;;;67.22;22.15;;;-1.70;99.90;;;-3.48;100.00;101469.84;4965488;28;20033;-82
2023/12/04 09:04:38;;;;;;;22.77;10.13;;;;;;;-3.56;100.00;101467.09;4933594;28;20052;-84
2023/12/04 09:07:05;;;;;;;27.60;8.45;;;-1.70;99.90;;;-3.64;100.00;101469.50;5003525;28;20150;-84
2023/12/04 09:09:32;;;;;;;63.58;20.48;;;-1.70;99.90;;;-3.54;100.00;101471.44;4959952;28;20042;-85
2023/12/04 09:12:18;;;;;;;32.35;11.75;;;-1.60;99.90;;;-3.51;100.00;101466.34;4957169;28;20025;-85
2023/12/04 09:14:47;;;;;;;65.38;20.38;;;-1.70;99.90;;;-3.54;100.00;101468.00;4991828;28;20472;-84
2023/12/04 09:17:24;;;;;;;75.22;24.00;;;;;;;-3.50;100.00;101467.22;4988316;28;20036;-84
2023/12/04 09:19:50;;;;;;;81.45;26.23;;;-1.60;99.90;;;-3.41;100.00;101466.56;4996390;28;20039;-85
2023/12/04 09:22:19;;;;;;;67.20;22.75;;;-1.60;99.90;;;-3.35;100.00;101477.00;4940330;28;20053;-85
2023/12/04 09:24:56;;;;;;;54.13;18.50;;;-1.60;99.90;;;-3.35;100.00;101474.41;4952574;28;20037;-84
2023/12/04 09:27:23;;;;;;;61.78;23.45;;;-1.60;99.90;;;-3.36;100.00;101467.56;4969531;28;20029;-83
2023/12/04 09:29:57;;;;;;;65.63;22.98;;;-1.60;99.90;;;-3.33;100.00;101467.59;4996017;28;20033;-83
2023/12/04 09:32:23;;;;;;;67.18;22.10;;;-1.50;99.90;;;-3.27;100.00;101469.47;4956905;28;20091;-83
2023/12/04 09:35:02;;;;;;;69.65;21.80;;;;;;;-3.24;100.00;101472.97;4950374;28;20475;-85
2023/12/04 09:37:28;;;;;;;57.00;21.17;;;-1.50;99.90;;;-3.20;100.00;101476.47;4975487;28;20546;-85
2023/12/04 09:40:07;;;;;;;65.18;24.48;;;-1.40;99.90;;;-3.18;100.00;101478.25;5001154;28;20067;-83
2023/12/04 09:42:35;;;;;;;73.55;25.70;;;-1.40;99.90;;;-3.12;100.00;101470.66;4992779;28;20041;-85
2023/12/04 09:45:23;;;;;;;61.00;24.55;;;-1.40;99.90;;;-3.09;100.00;101475.00;4978264;28;20514;-83
2023/12/04 09:47:49;;;;;;;70.10;25.58;;;-1.30;99.90;;;-3.04;100.00;101475.13;4977155;28;20029;-84
2023/12/04 09:50:20;;;;;;;60.50;22.63;;;-1.30;99.90;;;-3.02;100.00;101465.69;5010981;28;20404;-83
2023/12/04 09:52:54;;;;;;;63.95;24.33;;;;;;;-3.02;100.00;101465.69;4986545;28;20039;-84
2023/12/04 09:55:20;;;;;;;58.17;20.92;;;-1.30;99.90;;;-3.05;100.00;101450.16;5018461;28;20040;-84
2023/12/04 09:57:53;;;;;;;55.13;20.02;;;;;;;-3.07;100.00;101447.53;5005180;28;20041;-86
2023/12/04 10:00:21;;;;;;;58.72;21.25;;;-1.30;99.90;;;-3.05;100.00;101434.72;4996172;28;20099;-84
2023/12/04 10:02:48;;;;;;;50.42;19.55;;;-1.30;99.90;;;-3.06;100.00;101440.72;5031829;28;20044;-84
2023/12/04 10:05:24;;;;;;;63.78;24.15;;;-1.30;99.90;;;-3.06;100.00;101439.00;4961117;28;20033;-84
2023/12/04 10:07:50;;;;;;;58.70;21.00;;;;;;;-2.99;100.00;101427.97;4989393;28;20427;-84
2023/12/04 10:10:24;;;;;;;43.03;14.77;;;-1.30;99.90;;;-3.04;100.00;101419.28;5011153;28;20093;-84